Time;durP1;ratioP1;P1;durP2;ratioP2;P2;SDS_P1;SDS_P2;PMS_P1;PMS_P2;Temp;Humidity;BMP_temperature;BMP_pressure;BME280_temperature;BME280_humidity;BME280_pressure;Samples;Min_cycle;Max_cycle;Signal;HPM_P1;HPM_P2
2022/01/04 00:00:07;;;;;;;36.50;9.98;;;8.00;99.90;;;;;;5088407;28;20066;-49
2022/01/04 00:02:32;;;;;;;32.67;9.27;;;8.00;99.90;;;;;;5078884;28;20033;-51
2022/01/04 00:04:58;;;;;;;32.38;10.50;;;7.90;99.90;;;;;;5079528;28;20028;-49
2022/01/04 00:07:24;;;;;;;39.92;9.82;;;8.00;99.90;;;;;;5078574;28;20092;-50
2022/01/04 00:09:52;;;;;;;34.20;8.57;;;7.90;99.90;;;;;;5084711;28;20497;-48
2022/01/04 00:15:02;;;;;;;29.88;10.05;;;8.00;99.90;;;;;;5077911;28;20071;-49
2022/01/04 00:17:28;;;;;;;26.02;8.98;;;8.00;99.90;;;;;;5090170;28;21142;-50
2022/01/04 00:19:54;;;;;;;24.60;8.95;;;7.90;99.90;;;;;;5130335;22;20111;-50
2022/01/04 00:22:20;;;;;;;33.10;10.05;;;8.00;99.90;;;;;;5036249;28;20032;-52
2022/01/04 00:24:46;;;;;;;31.58;9.20;;;7.90;99.90;;;;;;5033874;28;20040;-50
2022/01/04 00:27:11;;;;;;;34.95;9.70;;;7.90;99.90;;;;;;5033703;28;20029;-50
2022/01/04 00:29:37;;;;;;;29.45;9.75;;;7.90;99.90;;;;;;5034487;28;20044;-49
2022/01/04 00:32:03;;;;;;;31.88;9.20;;;8.00;99.90;;;;;;5040648;28;20072;-49
2022/01/04 00:34:29;;;;;;;23.98;10.25;;;8.00;99.90;;;;;;5042079;28;20383;-51
2022/01/04 00:36:54;;;;;;;31.15;9.63;;;8.00;99.90;;;;;;5038165;28;20034;-50
2022/01/04 00:39:20;;;;;;;28.98;8.95;;;7.90;99.90;;;;;;5041152;28;20148;-50
2022/01/04 00:41:46;;;;;;;30.90;9.85;;;8.00;99.90;;;;;;5037031;28;20041;-51
2022/01/04 00:44:11;;;;;;;28.20;9.57;;;7.90;99.90;;;;;;5034416;28;20087;-52
2022/01/04 00:46:37;;;;;;;28.17;9.43;;;7.90;99.90;;;;;;5036547;28;20037;-53
2022/01/04 00:49:11;;;;;;;26.80;10.40;;;7.90;99.90;;;;;;5030388;28;20045;-50
2022/01/04 00:51:42;;;;;;;31.85;9.85;;;7.90;99.90;;;;;;5039473;28;20045;-49
2022/01/04 00:54:09;;;;;;;31.13;10.57;;;7.90;99.90;;;;;;5037088;28;20075;-54
2022/01/04 00:56:35;;;;;;;27.23;10.30;;;7.90;99.90;;;;;;5034624;28;20091;-50
2022/01/04 00:59:01;;;;;;;29.70;10.02;;;7.90;99.90;;;;;;5035512;28;20048;-53
2022/01/04 01:01:27;;;;;;;33.45;11.43;;;7.90;99.90;;;;;;5040241;28;20028;-54
2022/01/04 01:03:53;;;;;;;33.75;11.38;;;7.90;99.90;;;;;;5032582;28;20734;-50
2022/01/04 01:06:19;;;;;;;30.73;10.32;;;7.80;99.90;;;;;;5031028;28;20036;-50
2022/01/04 01:08:45;;;;;;;28.42;12.07;;;7.80;99.90;;;;;;5039707;28;20034;-50
2022/01/04 01:11:11;;;;;;;33.58;11.18;;;7.90;99.90;;;;;;5030838;28;20068;-52
2022/01/04 01:13:37;;;;;;;30.55;11.02;;;7.90;99.90;;;;;;5031617;28;20057;-52
2022/01/04 01:16:04;;;;;;;28.23;11.02;;;7.90;99.90;;;;;;5031014;28;20025;-49
2022/01/04 01:18:29;;;;;;;31.95;9.70;;;7.90;99.90;;;;;;5033628;28;20113;-51
2022/01/04 01:20:55;;;;;;;29.33;10.38;;;7.90;99.90;;;;;;5045619;28;20104;-51
2022/01/04 01:23:22;;;;;;;30.65;10.90;;;7.90;99.90;;;;;;5034193;28;20105;-51
2022/01/04 01:25:48;;;;;;;23.83;9.38;;;7.90;99.90;;;;;;5039138;28;20086;-52
2022/01/04 01:28:15;;;;;;;29.15;10.48;;;8.00;99.90;;;;;;5039194;28;20056;-51
2022/01/04 01:30:43;;;;;;;24.88;9.65;;;8.00;99.90;;;;;;5042721;28;20036;-50
2022/01/04 01:33:10;;;;;;;24.27;10.68;;;8.00;99.90;;;;;;5044853;28;20021;-50
2022/01/04 01:35:37;;;;;;;28.63;9.85;;;8.00;99.90;;;;;;5031458;28;20025;-50
2022/01/04 01:38:04;;;;;;;23.05;9.68;;;8.00;99.90;;;;;;5039575;28;20604;-50
2022/01/04 01:40:30;;;;;;;25.50;10.13;;;7.90;99.90;;;;;;5043204;28;20120;-50
2022/01/04 01:42:56;;;;;;;28.75;10.07;;;7.90;99.90;;;;;;5030246;28;20538;-50
2022/01/04 01:45:23;;;;;;;29.27;10.45;;;8.00;99.90;;;;;;5030715;28;20116;-50
2022/01/04 01:47:50;;;;;;;30.67;9.98;;;7.90;99.90;;;;;;5036756;28;20040;-51
2022/01/04 01:50:16;;;;;;;33.40;10.00;;;8.00;99.90;;;;;;5049865;28;20044;-50
2022/01/04 01:52:45;;;;;;;29.80;10.18;;;7.90;99.90;;;;;;5048651;28;20028;-50
2022/01/04 01:55:12;;;;;;;34.83;11.07;;;8.00;99.90;;;;;;5050405;28;20028;-50
2022/01/04 01:57:38;;;;;;;29.77;9.13;;;7.90;99.90;;;;;;5048051;28;20088;-50
2022/01/04 02:00:06;;;;;;;27.70;10.38;;;8.00;99.90;;;;;;5044809;28;20025;-50
2022/01/04 02:02:32;;;;;;;30.83;10.35;;;8.00;99.90;;;;;;5031024;28;20040;-49
2022/01/04 02:04:58;;;;;;;26.92;10.30;;;8.00;99.90;;;;;;5029687;28;20025;-51
2022/01/04 02:07:24;;;;;;;24.38;10.60;;;8.10;99.90;;;;;;5035764;28;20506;-49
2022/01/04 02:10:03;;;;;;;35.03;11.27;;;8.10;99.90;;;;;;5046031;28;20434;-49
2022/01/04 02:12:34;;;;;;;32.58;11.93;;;8.00;99.90;;;;;;5044213;28;20079;-50
2022/01/04 02:15:00;;;;;;;30.48;11.32;;;8.00;99.90;;;;;;5029495;28;20072;-49
2022/01/04 02:17:27;;;;;;;29.73;11.38;;;8.00;99.90;;;;;;5031165;28;20018;-50
2022/01/04 02:19:57;;;;;;;33.58;12.05;;;8.00;99.90;;;;;;5038191;28;20041;-49
2022/01/04 02:22:23;;;;;;;26.73;11.90;;;8.00;99.90;;;;;;5045489;28;20033;-49
2022/01/04 02:24:48;;;;;;;34.05;11.35;;;8.00;99.90;;;;;;5029531;28;20509;-49
2022/01/04 02:27:15;;;;;;;31.60;12.20;;;8.10;99.90;;;;;;5036986;28;20501;-51
2022/01/04 02:29:41;;;;;;;26.23;11.60;;;8.00;99.90;;;;;;5041088;28;20091;-52
2022/01/04 02:32:08;;;;;;;32.75;11.82;;;8.00;99.90;;;;;;5031307;28;20065;-50
2022/01/04 02:34:33;;;;;;;41.42;13.48;;;8.00;99.90;;;;;;5049260;28;20065;-51
2022/01/04 02:36:59;;;;;;;28.40;12.07;;;8.00;99.90;;;;;;5049114;28;20021;-50
2022/01/04 02:39:25;;;;;;;30.13;13.15;;;8.00;99.90;;;;;;5041862;28;20033;-50
2022/01/04 02:41:51;;;;;;;31.75;12.07;;;8.00;99.90;;;;;;5027859;28;20445;-49
2022/01/04 02:44:16;;;;;;;33.83;13.35;;;8.00;99.90;;;;;;5040107;28;20060;-49
2022/01/04 02:46:42;;;;;;;31.63;13.40;;;8.00;99.90;;;;;;5047581;28;20029;-50
2022/01/04 02:49:08;;;;;;;31.80;14.52;;;8.00;99.90;;;;;;5046707;28;20122;-49
2022/01/04 02:51:34;;;;;;;31.55;13.15;;;8.00;99.90;;;;;;5029415;28;20038;-49
2022/01/04 02:53:59;;;;;;;35.90;13.82;;;8.00;99.90;;;;;;5029191;28;20030;-49
2022/01/04 02:56:25;;;;;;;37.83;13.88;;;7.90;99.90;;;;;;5029651;28;20033;-50
2022/01/04 02:58:51;;;;;;;34.72;14.05;;;7.90;99.90;;;;;;5029983;28;20132;-50
2022/01/04 03:01:16;;;;;;;33.70;14.23;;;7.90;99.90;;;;;;5048711;28;20500;-50
2022/01/04 03:03:42;;;;;;;31.25;13.75;;;7.90;99.90;;;;;;5049112;28;20293;-51
2022/01/04 03:06:13;;;;;;;36.60;14.32;;;7.90;99.90;;;;;;5049423;28;20033;-50
2022/01/04 03:08:39;;;;;;;38.47;14.32;;;7.80;99.90;;;;;;5045403;28;20059;-53
2022/01/04 03:11:04;;;;;;;28.33;13.23;;;7.90;99.90;;;;;;5029723;28;20041;-49
2022/01/04 03:13:30;;;;;;;40.75;14.00;;;7.90;99.90;;;;;;5029471;28;20390;-52
2022/01/04 03:15:56;;;;;;;34.25;14.57;;;7.90;99.90;;;;;;5028858;28;20057;-49
2022/01/04 03:18:21;;;;;;;36.47;14.77;;;7.80;99.90;;;;;;5029204;28;20076;-49
2022/01/04 03:20:47;;;;;;;36.90;15.70;;;7.90;99.90;;;;;;5039278;28;20055;-49
2022/01/04 03:23:12;;;;;;;32.88;16.02;;;7.90;99.90;;;;;;5048961;28;20112;-49
2022/01/04 03:25:40;;;;;;;39.30;14.77;;;7.90;99.90;;;;;;5048886;28;20040;-49
2022/01/04 03:28:06;;;;;;;30.33;15.02;;;7.90;99.90;;;;;;5048261;28;20060;-50
2022/01/04 03:30:33;;;;;;;35.15;15.32;;;7.90;99.90;;;;;;5035943;28;20113;-50
2022/01/04 03:32:59;;;;;;;35.10;15.70;;;7.90;99.90;;;;;;5028591;28;20041;-50
2022/01/04 03:35:25;;;;;;;27.88;14.80;;;7.90;99.90;;;;;;5029281;28;20038;-49
2022/01/04 03:37:51;;;;;;;40.90;16.52;;;7.80;99.90;;;;;;5028749;28;20094;-50
2022/01/04 03:40:16;;;;;;;37.22;16.17;;;7.80;99.90;;;;;;5039428;28;20475;-50
2022/01/04 03:42:42;;;;;;;36.50;16.75;;;7.80;99.90;;;;;;5048093;28;20064;-50
2022/01/04 03:45:08;;;;;;;31.70;15.85;;;7.80;99.90;;;;;;5048580;28;20037;-51
2022/01/04 03:47:34;;;;;;;44.83;17.05;;;7.80;99.90;;;;;;5043451;28;20029;-49
2022/01/04 03:50:00;;;;;;;37.38;17.13;;;7.80;99.90;;;;;;5035384;28;20083;-51
2022/01/04 03:52:25;;;;;;;38.20;15.75;;;7.70;99.90;;;;;;5048832;28;20126;-50
2022/01/04 03:54:51;;;;;;;46.83;17.25;;;7.80;99.90;;;;;;5048420;28;20390;-50
2022/01/04 03:57:17;;;;;;;31.67;15.48;;;7.80;99.90;;;;;;5049061;28;20184;-50
2022/01/04 03:59:42;;;;;;;38.17;17.13;;;7.80;99.90;;;;;;5042546;28;20029;-53
2022/01/04 04:02:08;;;;;;;36.72;16.90;;;7.70;99.90;;;;;;5033642;28;20044;-50
2022/01/04 04:04:34;;;;;;;37.50;16.73;;;7.70;99.90;;;;;;5029229;28;20113;-50
2022/01/04 04:06:59;;;;;;;42.30;16.02;;;7.70;99.90;;;;;;5028622;28;20029;-50
2022/01/04 04:09:25;;;;;;;38.80;16.05;;;7.80;99.90;;;;;;5032553;28;20040;-50
2022/01/04 04:11:51;;;;;;;38.65;16.65;;;7.80;99.90;;;;;;5035864;28;20030;-51
2022/01/04 04:14:17;;;;;;;35.38;15.88;;;7.80;99.90;;;;;;5028799;28;20125;-52
2022/01/04 04:16:42;;;;;;;46.20;18.42;;;7.80;99.90;;;;;;5030778;28;20046;-54
2022/01/04 04:19:08;;;;;;;39.03;16.92;;;7.90;99.90;;;;;;5032734;28;20038;-50
2022/01/04 04:21:33;;;;;;;36.17;17.88;;;7.80;99.90;;;;;;5049549;28;20538;-50
2022/01/04 04:23:59;;;;;;;37.80;17.70;;;7.80;99.90;;;;;;5037787;28;20033;-49
2022/01/04 04:26:25;;;;;;;40.00;16.88;;;7.80;99.90;;;;;;5030846;28;20383;-49
2022/01/04 04:28:50;;;;;;;42.03;18.23;;;7.80;99.90;;;;;;5031605;28;20541;-49
2022/01/04 04:31:16;;;;;;;39.90;17.48;;;7.80;99.90;;;;;;5048085;28;20079;-49
2022/01/04 04:33:42;;;;;;;43.08;19.15;;;7.80;99.90;;;;;;5051643;28;20033;-49
2022/01/04 04:36:10;;;;;;;39.13;18.50;;;7.80;99.90;;;;;;5051895;28;20017;-49
2022/01/04 04:38:36;;;;;;;38.25;17.85;;;7.80;99.90;;;;;;5049838;28;20498;-49
2022/01/04 04:41:02;;;;;;;43.78;17.27;;;7.80;99.90;;;;;;5049455;28;20616;-49
2022/01/04 04:43:28;;;;;;;41.33;18.23;;;7.80;99.90;;;;;;5052166;28;20112;-49
2022/01/04 04:45:53;;;;;;;41.20;18.58;;;7.80;99.90;;;;;;5051313;28;20029;-49
2022/01/04 04:48:19;;;;;;;43.05;17.85;;;7.80;99.90;;;;;;5046407;28;20544;-49
2022/01/04 04:50:44;;;;;;;38.70;17.80;;;7.80;99.90;;;;;;5030860;28;20030;-49
2022/01/04 04:53:10;;;;;;;40.20;18.20;;;7.90;99.90;;;;;;5031528;28;20025;-49
2022/01/04 04:55:36;;;;;;;41.35;18.65;;;7.80;99.90;;;;;;5031706;28;20030;-50
2022/01/04 04:58:01;;;;;;;38.88;18.30;;;7.90;99.90;;;;;;5033044;28;20417;-49
2022/01/04 05:00:27;;;;;;;42.47;18.45;;;7.90;99.90;;;;;;5028670;28;20034;-49
2022/01/04 05:02:53;;;;;;;46.95;19.50;;;7.90;99.90;;;;;;5031141;28;20091;-51
2022/01/04 05:05:18;;;;;;;40.67;18.92;;;7.90;99.90;;;;;;5031472;28;20033;-49
2022/01/04 05:07:44;;;;;;;36.00;17.60;;;7.90;99.90;;;;;;5030836;28;20030;-50
2022/01/04 05:10:10;;;;;;;47.45;18.88;;;7.90;99.90;;;;;;5033238;28;20075;-48
2022/01/04 05:12:36;;;;;;;47.33;19.77;;;7.90;99.90;;;;;;5031207;28;20041;-49
2022/01/04 05:15:03;;;;;;;37.67;19.38;;;7.80;99.90;;;;;;5029683;28;20463;-49
2022/01/04 05:17:29;;;;;;;48.15;19.70;;;7.80;99.90;;;;;;5031016;28;20128;-49
2022/01/04 05:19:54;;;;;;;42.05;19.42;;;7.80;99.90;;;;;;5046020;28;20047;-49
2022/01/04 05:22:20;;;;;;;45.03;18.98;;;7.80;99.90;;;;;;5050435;28;20402;-48
2022/01/04 05:24:46;;;;;;;44.33;19.98;;;7.80;99.90;;;;;;5047817;28;20045;-48
2022/01/04 05:27:11;;;;;;;44.50;19.17;;;7.80;99.90;;;;;;5031014;28;20044;-48
2022/01/04 05:29:37;;;;;;;41.47;18.55;;;7.90;99.90;;;;;;5044946;28;20503;-48
2022/01/04 05:32:03;;;;;;;38.55;18.20;;;7.90;99.90;;;;;;5049942;28;20032;-48
2022/01/04 05:34:28;;;;;;;47.88;19.80;;;7.90;99.90;;;;;;5050635;28;20029;-48
2022/01/04 05:36:54;;;;;;;47.92;20.50;;;7.90;99.90;;;;;;5050459;28;20025;-48
2022/01/04 05:39:20;;;;;;;53.15;20.35;;;7.90;99.90;;;;;;5046580;28;20060;-50
2022/01/04 05:41:46;;;;;;;41.75;19.30;;;7.90;99.90;;;;;;5049052;28;20083;-50
2022/01/04 05:44:11;;;;;;;46.97;19.98;;;7.90;99.90;;;;;;5050871;28;20029;-50
2022/01/04 05:46:37;;;;;;;41.97;19.85;;;7.90;99.90;;;;;;5050902;28;20056;-49
2022/01/04 05:49:03;;;;;;;41.38;20.50;;;7.90;99.90;;;;;;5041488;28;20072;-52
2022/01/04 05:51:29;;;;;;;39.15;19.40;;;7.90;99.90;;;;;;5049953;28;20094;-49
2022/01/04 05:53:55;;;;;;;43.55;20.80;;;7.90;99.90;;;;;;5048174;28;20033;-50
2022/01/04 05:56:20;;;;;;;47.95;21.88;;;7.80;99.90;;;;;;5050342;28;20049;-48
2022/01/04 05:58:46;;;;;;;45.10;22.42;;;7.80;99.90;;;;;;5048143;28;20069;-52
2022/01/04 06:01:12;;;;;;;46.28;21.02;;;7.90;99.90;;;;;;5047772;28;20023;-53
2022/01/04 06:03:37;;;;;;;48.47;22.00;;;7.80;99.90;;;;;;5050335;28;20132;-50
2022/01/04 06:06:03;;;;;;;52.10;23.17;;;7.80;99.90;;;;;;5049362;28;20509;-49
2022/01/04 06:08:34;;;;;;;55.28;22.65;;;7.70;99.90;;;;;;5047977;28;20540;-49
2022/01/04 06:10:59;;;;;;;53.22;24.55;;;7.70;99.90;;;;;;5032485;28;20079;-53
2022/01/04 06:16:10;;;;;;;57.55;25.15;;;7.70;99.90;;;;;;5029655;28;20052;-51
2022/01/04 06:18:36;;;;;;;51.47;22.42;;;7.60;99.90;;;;;;5038103;28;20033;-54
2022/01/04 06:21:02;;;;;;;53.15;24.00;;;7.60;99.90;;;;;;5028953;28;20380;-51
2022/01/04 06:23:27;;;;;;;59.88;23.98;;;7.60;99.90;;;;;;5030041;28;20033;-54
2022/01/04 06:25:53;;;;;;;58.15;26.10;;;7.60;99.90;;;;;;5045203;28;20033;-53
2022/01/04 06:28:20;;;;;;;51.22;23.95;;;7.60;99.90;;;;;;5043337;28;20430;-54
2022/01/04 06:30:49;;;;;;;53.75;25.02;;;7.60;99.90;;;;;;5035553;28;20172;-50
2022/01/04 06:33:21;;;;;;;56.58;25.73;;;7.60;99.90;;;;;;5010110;28;20083;-54
2022/01/04 06:35:48;;;;;;;50.63;24.83;;;7.60;99.90;;;;;;5009791;28;20021;-52
2022/01/04 06:38:14;;;;;;;56.58;25.80;;;7.60;99.90;;;;;;5023704;28;20119;-50
2022/01/04 06:40:40;;;;;;;57.92;26.55;;;7.60;99.90;;;;;;5041815;28;20510;-52
2022/01/04 06:43:05;;;;;;;57.65;25.38;;;7.60;99.90;;;;;;5029832;28;20091;-55
2022/01/04 06:45:31;;;;;;;52.28;25.63;;;7.60;99.90;;;;;;5028923;28;20037;-50
2022/01/04 06:47:57;;;;;;;57.78;23.70;;;7.60;99.90;;;;;;5029421;28;20049;-51
2022/01/04 06:50:23;;;;;;;55.47;23.38;;;7.70;99.90;;;;;;5047797;28;20039;-49
2022/01/04 06:52:49;;;;;;;56.47;23.40;;;7.70;99.90;;;;;;5049245;28;20437;-51
2022/01/04 06:55:15;;;;;;;55.33;25.42;;;7.70;99.90;;;;;;5050028;28;20025;-51
2022/01/04 06:57:41;;;;;;;51.35;23.23;;;7.70;99.90;;;;;;5049267;28;20487;-51
2022/01/04 07:00:08;;;;;;;46.65;24.40;;;7.70;99.90;;;;;;5042819;28;20083;-50
2022/01/04 07:02:33;;;;;;;54.35;23.38;;;7.70;99.90;;;;;;5047408;28;20065;-53
2022/01/04 07:04:59;;;;;;;51.47;24.35;;;7.70;99.90;;;;;;5048105;28;20067;-53
2022/01/04 07:07:25;;;;;;;51.10;25.02;;;7.70;99.90;;;;;;5029897;28;20422;-52
2022/01/04 07:09:50;;;;;;;64.57;24.90;;;7.70;99.90;;;;;;5029821;28;20025;-51
2022/01/04 07:12:16;;;;;;;52.13;24.60;;;7.70;99.90;;;;;;5037916;28;20739;-51
2022/01/04 07:14:42;;;;;;;58.03;25.85;;;7.70;99.90;;;;;;5009510;28;20068;-51
2022/01/04 07:17:08;;;;;;;61.05;25.55;;;7.70;99.90;;;;;;5026973;28;20112;-53
2022/01/04 07:19:34;;;;;;;54.95;23.63;;;7.70;99.90;;;;;;5029114;28;20046;-52
2022/01/04 07:21:59;;;;;;;45.30;23.67;;;7.70;99.90;;;;;;5040524;28;20454;-51
2022/01/04 07:24:25;;;;;;;48.67;21.90;;;7.70;99.90;;;;;;5049803;28;20033;-53
2022/01/04 07:26:51;;;;;;;51.70;23.52;;;7.80;99.90;;;;;;5048818;28;20025;-53
2022/01/04 07:29:17;;;;;;;53.53;23.25;;;7.80;99.90;;;;;;5042757;28;20416;-51
2022/01/04 07:31:42;;;;;;;50.85;23.83;;;7.80;99.90;;;;;;5038383;28;20449;-50
2022/01/04 07:34:08;;;;;;;49.17;22.58;;;7.80;99.90;;;;;;5029477;28;20475;-51
2022/01/04 07:36:34;;;;;;;47.55;23.27;;;7.80;99.90;;;;;;5042011;28;20045;-50
2022/01/04 07:38:59;;;;;;;52.67;23.38;;;7.80;99.90;;;;;;5047153;28;20591;-52
2022/01/04 07:41:26;;;;;;;54.22;23.35;;;7.80;99.90;;;;;;5020676;28;20032;-50
2022/01/04 07:43:52;;;;;;;54.30;25.50;;;7.80;99.90;;;;;;5029464;28;20134;-50
2022/01/04 07:46:18;;;;;;;57.72;23.75;;;7.90;99.90;;;;;;5029424;28;20029;-50
2022/01/04 07:48:44;;;;;;;55.67;23.75;;;7.80;99.90;;;;;;5028672;28;20613;-50
2022/01/04 07:51:11;;;;;;;56.55;24.67;;;7.80;99.90;;;;;;5033562;28;20025;-50
2022/01/04 07:53:36;;;;;;;52.25;23.50;;;7.90;99.90;;;;;;5052681;28;20558;-50
2022/01/04 07:56:02;;;;;;;50.70;22.90;;;7.90;99.90;;;;;;5051998;28;20104;-50
2022/01/04 07:58:29;;;;;;;52.70;22.80;;;7.90;99.90;;;;;;5049219;28;20048;-50
2022/01/04 08:00:55;;;;;;;54.35;23.08;;;7.90;99.90;;;;;;5032675;28;20037;-52
2022/01/04 08:03:21;;;;;;;60.88;24.23;;;7.90;99.90;;;;;;5049953;28;20029;-50
2022/01/04 08:05:47;;;;;;;56.65;24.25;;;7.90;99.90;;;;;;5032204;28;20029;-52
2022/01/04 08:08:13;;;;;;;53.80;24.70;;;7.90;99.90;;;;;;5032632;28;20071;-51
2022/01/04 08:10:39;;;;;;;51.03;23.75;;;7.90;99.90;;;;;;5033440;28;20026;-52
2022/01/04 08:13:05;;;;;;;55.03;23.92;;;7.90;99.90;;;;;;5050509;28;20406;-51
2022/01/04 08:15:31;;;;;;;49.88;23.48;;;7.90;99.90;;;;;;5052005;28;20039;-51
2022/01/04 08:17:57;;;;;;;53.92;23.08;;;7.90;99.90;;;;;;5052154;28;20029;-52
2022/01/04 08:20:23;;;;;;;45.67;21.83;;;8.00;99.90;;;;;;5051879;28;20530;-51
2022/01/04 08:22:48;;;;;;;54.45;22.60;;;7.90;99.90;;;;;;5042930;28;20060;-51
2022/01/04 08:25:14;;;;;;;49.42;23.35;;;7.90;99.90;;;;;;5041825;28;20021;-49
2022/01/04 08:27:40;;;;;;;48.70;24.10;;;7.90;99.90;;;;;;5047703;28;20432;-50
2022/01/04 08:30:09;;;;;;;48.85;22.88;;;8.00;99.90;;;;;;5031633;28;20026;-49
2022/01/04 08:32:35;;;;;;;46.97;22.85;;;8.00;99.90;;;;;;5044019;28;20163;-50
2022/01/04 08:35:02;;;;;;;47.75;23.00;;;8.00;99.90;;;;;;5030495;28;20102;-57
2022/01/04 08:37:29;;;;;;;50.00;23.42;;;8.10;99.90;;;;;;5031375;28;20037;-57
2022/01/04 08:39:55;;;;;;;51.72;21.98;;;8.00;99.90;;;;;;5027200;28;20033;-57
2022/01/04 08:42:22;;;;;;;43.47;21.38;;;8.00;99.90;;;;;;5032713;28;20278;-55
2022/01/04 08:44:51;;;;;;;54.00;24.13;;;8.00;99.90;;;;;;5034075;28;20387;-56
2022/01/04 08:47:17;;;;;;;45.30;22.67;;;8.10;99.90;;;;;;5027905;28;20037;-58
2022/01/04 08:49:43;;;;;;;42.53;22.10;;;8.00;99.90;;;;;;5030179;28;20092;-58
2022/01/04 08:52:10;;;;;;;59.20;24.52;;;8.00;99.90;;;;;;5026342;28;20033;-58
2022/01/04 08:54:36;;;;;;;47.42;23.35;;;8.00;99.90;;;;;;5026395;28;20053;-56
2022/01/04 08:57:02;;;;;;;48.33;24.00;;;8.00;99.90;;;;;;5031158;28;20034;-54
2022/01/04 08:59:28;;;;;;;48.55;22.58;;;8.00;99.90;;;;;;5031172;28;20112;-52
2022/01/04 09:01:55;;;;;;;46.47;20.50;;;8.00;99.90;;;;;;5037206;28;20026;-51
2022/01/04 09:04:21;;;;;;;47.85;23.70;;;8.00;99.90;;;;;;5031755;28;20095;-55
2022/01/04 09:06:48;;;;;;;48.75;24.10;;;7.90;99.90;;;;;;5027411;28;20471;-57
2022/01/04 09:09:13;;;;;;;50.95;25.00;;;7.90;99.90;;;;;;5031188;28;20400;-55
2022/01/04 09:11:39;;;;;;;44.35;23.50;;;7.90;99.90;;;;;;5028500;28;20057;-53
2022/01/04 09:14:22;;;;;;;51.55;24.17;;;7.90;99.90;;;;;;5031271;28;20080;-50
2022/01/04 09:19:32;;;;;;;43.50;22.63;;;7.90;99.90;;;;;;5024345;28;20566;-56
2022/01/04 09:21:58;;;;;;;43.72;22.13;;;7.90;99.90;;;;;;5030196;28;20026;-51
2022/01/04 09:24:24;;;;;;;42.83;22.08;;;8.00;99.90;;;;;;5025892;28;20022;-50
2022/01/04 09:26:49;;;;;;;51.63;23.10;;;8.00;99.90;;;;;;5017094;28;20045;-52
2022/01/04 09:29:19;;;;;;;44.08;21.63;;;7.90;99.90;;;;;;5021107;28;20034;-52
2022/01/04 09:31:50;;;;;;;39.22;20.98;;;7.90;99.90;;;;;;5029366;28;20116;-54
2022/01/04 09:34:16;;;;;;;43.17;19.05;;;8.00;99.90;;;;;;5026803;28;20124;-52
2022/01/04 09:36:43;;;;;;;41.95;22.48;;;8.00;99.90;;;;;;5025889;28;20037;-52
2022/01/04 09:39:23;;;;;;;38.90;21.85;;;8.00;99.90;;;;;;5030335;28;20083;-55
2022/01/04 09:41:51;;;;;;;45.97;22.10;;;8.10;99.90;;;;;;5038258;28;20025;-52
2022/01/04 09:44:17;;;;;;;42.63;21.50;;;8.10;99.90;;;;;;5023826;28;20399;-52
2022/01/04 09:46:43;;;;;;;46.55;23.77;;;8.10;99.90;;;;;;5027091;28;20035;-57
2022/01/04 09:49:11;;;;;;;42.20;21.65;;;8.10;99.90;;;;;;5028494;28;20534;-55
2022/01/04 09:51:39;;;;;;;43.65;21.98;;;8.10;99.90;;;;;;5020187;28;20152;-52
2022/01/04 09:54:05;;;;;;;38.88;22.48;;;8.20;99.90;;;;;;5027409;28;20487;-55
2022/01/04 09:56:31;;;;;;;39.53;22.13;;;8.20;99.90;;;;;;5030055;28;20025;-55
2022/01/04 09:58:56;;;;;;;47.92;21.45;;;8.20;99.90;;;;;;5022720;28;20084;-52
2022/01/04 10:01:25;;;;;;;37.15;21.38;;;8.30;99.90;;;;;;5030115;28;20030;-50
2022/01/04 10:03:51;;;;;;;38.88;19.98;;;8.30;99.90;;;;;;5029148;28;20060;-53
2022/01/04 10:06:17;;;;;;;42.42;21.48;;;8.30;99.90;;;;;;5028648;28;20041;-50
2022/01/04 10:08:57;;;;;;;47.63;21.75;;;8.30;99.90;;;;;;5029191;28;20498;-53
2022/01/04 10:11:31;;;;;;;40.80;20.83;;;8.30;99.90;;;;;;5028343;28;20025;-53
2022/01/04 10:14:18;;;;;;;44.92;21.75;;;8.40;99.90;;;;;;5024392;28;20034;-51
2022/01/04 10:16:55;;;;;;;38.63;19.17;;;8.40;99.90;;;;;;5020500;28;20475;-53
2022/01/04 10:19:31;;;;;;;49.28;20.65;;;8.50;99.90;;;;;;5026762;28;20472;-54
2022/01/04 10:22:35;;;;;;;41.25;19.95;;;8.50;99.90;;;;;;5029535;28;20030;-52
2022/01/04 10:25:00;;;;;;;46.15;20.65;;;8.50;99.90;;;;;;5029891;28;20065;-60
2022/01/04 10:27:33;;;;;;;42.42;19.17;;;8.50;99.90;;;;;;5029856;28;20077;-60
2022/01/04 10:30:22;;;;;;;34.50;19.60;;;8.40;99.90;;;;;;5031950;28;20026;-52
2022/01/04 10:32:53;;;;;;;33.08;18.15;;;8.40;99.90;;;;;;5031291;28;20065;-55
2022/01/04 10:35:55;;;;;;;41.10;21.23;;;8.20;99.90;;;;;;5028670;28;20030;-58
2022/01/04 10:38:28;;;;;;;41.75;20.60;;;8.20;99.90;;;;;;5028445;28;20037;-60
2022/01/04 10:41:01;;;;;;;44.13;22.10;;;8.10;99.90;;;;;;5024646;28;20034;-58
2022/01/04 10:43:32;;;;;;;33.15;13.10;;;7.90;99.90;;;;;;5021919;28;20045;-61
2022/01/04 10:46:01;;;;;;;16.05;5.60;;;7.70;99.90;;;;;;5023880;28;20044;-57
2022/01/04 10:48:39;;;;;;;16.88;4.45;;;7.00;99.90;;;;;;5008639;28;20083;-61
2022/01/04 10:51:15;;;;;;;15.07;4.00;;;6.70;99.90;;;;;;5026670;28;20037;-63
2022/01/04 10:53:56;;;;;;;18.33;7.90;;;6.70;99.90;;;;;;5022698;28;20030;-62
2022/01/04 10:56:31;;;;;;;32.58;14.55;;;6.80;99.90;;;;;;5029868;28;20136;-64
2022/01/04 10:58:59;;;;;;;37.30;15.52;;;6.90;99.90;;;;;;5028493;28;20025;-60
2022/01/04 11:01:27;;;;;;;30.98;15.68;;;7.10;99.90;;;;;;5027466;28;20057;-60
2022/01/04 11:03:55;;;;;;;30.48;14.45;;;7.20;99.90;;;;;;5027248;28;20053;-62
2022/01/04 11:06:28;;;;;;;35.67;16.08;;;7.20;99.90;;;;;;5020355;28;20037;-60
2022/01/04 11:08:55;;;;;;;36.15;17.65;;;7.30;99.90;;;;;;5020626;28;20026;-56
2022/01/04 11:11:20;;;;;;;42.38;19.33;;;7.30;99.90;;;;;;5029787;28;20037;-55
2022/01/04 11:13:48;;;;;;;39.00;18.02;;;7.30;99.90;;;;;;5021516;28;20079;-57
2022/01/04 11:16:15;;;;;;;39.47;19.25;;;7.40;99.90;;;;;;5030752;28;20163;-52
2022/01/04 11:18:41;;;;;;;28.95;16.35;;;7.40;99.90;;;;;;5029297;28;20410;-59
2022/01/04 11:21:11;;;;;;;23.17;12.65;;;7.40;99.90;;;;;;5031339;28;20025;-58
2022/01/04 11:23:39;;;;;;;22.60;11.98;;;7.30;99.90;;;;;;5026380;28;20048;-61
2022/01/04 11:26:05;;;;;;;24.77;10.43;;;7.30;99.90;;;;;;5034181;28;20029;-57
2022/01/04 11:28:31;;;;;;;16.58;8.15;;;7.20;99.90;;;;;;5032048;28;20017;-63
2022/01/04 11:31:05;;;;;;;20.48;8.68;;;7.10;99.90;;;;;;5033055;28;20430;-61
2022/01/04 11:34:07;;;;;;;15.00;7.18;;;7.10;99.90;;;;;;5034805;28;20103;-62
2022/01/04 11:36:38;;;;;;;11.05;4.38;;;7.00;99.90;;;;;;5014103;28;20041;-62
2022/01/04 11:39:28;;;;;;;8.10;3.42;;;7.00;99.90;;;;;;5033029;28;20024;-64
2022/01/04 11:41:55;;;;;;;8.38;3.28;;;7.00;99.90;;;;;;5026089;28;20361;-62
2022/01/04 11:44:23;;;;;;;4.93;2.60;;;7.00;99.90;;;;;;5033328;28;20140;-62
2022/01/04 11:47:08;;;;;;;7.82;2.42;;;6.90;99.90;;;;;;5032187;28;20372;-63
2022/01/04 11:49:38;;;;;;;5.40;2.03;;;6.90;99.90;;;;;;5030141;28;20041;-61
2022/01/04 11:52:06;;;;;;;6.95;2.42;;;6.80;99.90;;;;;;5031743;28;20126;-63
2022/01/04 11:54:32;;;;;;;8.60;2.28;;;6.90;99.90;;;;;;5032468;28;20124;-61
2022/01/04 11:57:18;;;;;;;6.45;2.40;;;6.90;99.90;;;;;;5041453;28;20449;-62
2022/01/04 11:59:47;;;;;;;10.85;2.72;;;6.80;99.90;;;;;;5017290;28;20042;-59
2022/01/04 12:02:36;;;;;;;9.50;2.72;;;6.80;99.90;;;;;;5028766;28;20051;-58
2022/01/04 12:05:24;;;;;;;5.78;2.22;;;6.80;99.90;;;;;;5030563;28;20538;-60
2022/01/04 12:07:51;;;;;;;12.18;3.38;;;6.80;99.90;;;;;;5030367;28;20033;-59
2022/01/04 12:10:20;;;;;;;8.00;2.95;;;6.90;99.90;;;;;;5030101;28;20493;-60
2022/01/04 12:12:57;;;;;;;10.75;2.72;;;6.80;99.90;;;;;;5030638;28;20044;-60
2022/01/04 12:15:35;;;;;;;10.93;3.00;;;6.80;99.90;;;;;;5032069;28;20383;-61
2022/01/04 12:18:28;;;;;;;12.27;3.25;;;6.80;99.90;;;;;;5032662;28;20440;-60
2022/01/04 12:20:56;;;;;;;7.82;2.25;;;6.80;99.90;;;;;;5031460;28;20468;-57
2022/01/04 12:23:29;;;;;;;11.00;3.25;;;6.80;99.90;;;;;;5032557;28;20502;-57
2022/01/04 12:26:12;;;;;;;6.82;3.08;;;6.80;99.90;;;;;;5032328;28;20391;-58
2022/01/04 12:28:39;;;;;;;10.25;2.95;;;6.80;99.90;;;;;;5032425;28;20083;-55
2022/01/04 12:31:17;;;;;;;10.60;3.03;;;6.80;99.90;;;;;;5031866;28;20025;-56
2022/01/04 12:33:51;;;;;;;7.20;2.92;;;6.80;99.90;;;;;;5031424;28;20034;-62
2022/01/04 12:36:38;;;;;;;10.82;3.63;;;6.80;99.90;;;;;;5031327;28;20036;-61
2022/01/04 12:39:13;;;;;;;7.65;3.47;;;6.80;99.90;;;;;;5030787;28;20072;-60
2022/01/04 12:41:41;;;;;;;10.35;2.90;;;6.70;99.90;;;;;;5031337;28;20121;-59
2022/01/04 12:44:09;;;;;;;11.30;2.92;;;6.70;99.90;;;;;;5032083;28;20022;-58
2022/01/04 12:46:39;;;;;;;8.98;3.28;;;6.70;99.90;;;;;;5031859;28;20037;-59
2022/01/04 12:49:10;;;;;;;7.60;2.45;;;6.70;99.90;;;;;;5032059;28;20024;-59